Time;durP1;ratioP1;P1;durP2;ratioP2;P2;SDS_P1;SDS_P2;PMS_P1;PMS_P2;Temp;Humidity;BMP_temperature;BMP_pressure;BME280_temperature;BME280_humidity;BME280_pressure;Samples;Min_cycle;Max_cycle;Signal;HPM_P1;HPM_P2
2024/01/21 00:01:29;;;;;;;19.02;9.32;;;;;;;;;;5073455;28;20097;-84
2024/01/21 00:03:55;;;;;;;17.08;9.50;;;;;;;;;;5073938;28;20435;-84
2024/01/21 00:06:21;;;;;;;15.13;8.80;;;;;;;;;;5074480;28;20021;-84
2024/01/21 00:08:47;;;;;;;17.38;8.60;;;;;;;;;;5075540;28;20070;-83
2024/01/21 00:11:13;;;;;;;15.75;8.93;;;;;;;;;;5080889;28;20029;-84
2024/01/21 00:13:39;;;;;;;14.35;7.82;;;;;;;;;;5086937;28;20109;-84
2024/01/21 00:16:05;;;;;;;19.85;9.55;;;;;;;;;;5096182;28;20035;-84
2024/01/21 00:18:31;;;;;;;16.35;8.38;;;;;;;;;;5095479;28;20085;-84
2024/01/21 00:20:57;;;;;;;17.55;9.95;;;;;;;;;;5087951;28;20078;-82
2024/01/21 00:23:23;;;;;;;17.88;10.02;;;;;;;;;;5073829;28;20082;-82
2024/01/21 00:25:49;;;;;;;18.63;10.73;;;;;;;;;;5073026;28;20032;-83
2024/01/21 00:28:15;;;;;;;18.30;8.82;;;;;;;;;;5074078;28;20020;-82
2024/01/21 00:30:41;;;;;;;14.32;6.75;;;;;;;;;;5072583;28;20021;-83
2024/01/21 00:33:07;;;;;;;15.95;8.93;;;;;;;;;;5075181;28;20058;-84
2024/01/21 00:35:33;;;;;;;16.02;8.65;;;;;;;;;;5075687;28;20395;-84
2024/01/21 00:37:59;;;;;;;15.95;8.93;;;;;;;;;;5074243;28;20060;-84
2024/01/21 00:40:25;;;;;;;14.02;8.20;;;;;;;;;;5073051;28;20021;-83
2024/01/21 00:42:51;;;;;;;19.05;7.80;;;;;;;;;;5071079;28;20048;-84
2024/01/21 00:45:17;;;;;;;18.35;7.72;;;;;;;;;;5071078;28;20028;-83
2024/01/21 00:47:43;;;;;;;15.23;7.57;;;;;;;;;;5070908;28;20094;-83
2024/01/21 00:50:10;;;;;;;13.55;7.40;;;;;;;;;;5071173;28;20444;-84
2024/01/21 00:52:36;;;;;;;17.08;9.23;;;;;;;;;;5070901;28;20025;-82
2024/01/21 00:55:02;;;;;;;13.30;7.15;;;;;;;;;;5070984;28;20078;-82
2024/01/21 00:57:28;;;;;;;13.27;6.38;;;;;;;;;;5072090;28;20080;-82
2024/01/21 00:59:54;;;;;;;15.80;8.18;;;;;;;;;;5072210;28;20040;-83
2024/01/21 01:02:20;;;;;;;14.07;7.32;;;;;;;;;;5070753;28;20392;-83
2024/01/21 01:04:48;;;;;;;17.50;8.65;;;;;;;;;;5070706;28;20098;-83
2024/01/21 01:07:14;;;;;;;14.43;8.05;;;;;;;;;;5071337;28;20514;-83
2024/01/21 01:09:41;;;;;;;18.23;9.05;;;;;;;;;;5070979;28;20032;-85
2024/01/21 01:12:07;;;;;;;15.30;8.88;;;;;;;;;;5071067;28;20021;-85
2024/01/21 01:14:33;;;;;;;15.02;8.80;;;;;;;;;;5070982;28;20422;-85
2024/01/21 01:16:59;;;;;;;14.38;7.22;;;;;;;;;;5071249;28;20046;-85
2024/01/21 01:19:25;;;;;;;18.55;9.30;;;;;;;;;;5070915;28;20070;-84
2024/01/21 01:21:52;;;;;;;15.65;9.05;;;;;;;;;;5071141;28;20048;-85
2024/01/21 01:24:19;;;;;;;13.02;7.30;;;;;;;;;;5070950;28;20036;-85
2024/01/21 01:26:45;;;;;;;16.88;8.95;;;;;;;;;;5070718;28;20384;-84
2024/01/21 01:29:11;;;;;;;15.90;9.13;;;;;;;;;;5070843;28;20029;-84
2024/01/21 01:31:37;;;;;;;15.98;8.68;;;;;;;;;;5070749;28;20028;-84
2024/01/21 01:34:03;;;;;;;19.05;8.35;;;;;;;;;;5071970;28;20028;-85
2024/01/21 01:36:29;;;;;;;14.50;7.63;;;;;;;;;;5070281;28;20384;-84
2024/01/21 01:38:56;;;;;;;13.82;7.88;;;;;;;;;;5074141;28;20032;-84
2024/01/21 01:41:22;;;;;;;16.13;8.38;;;;;;;;;;5075954;28;20147;-86
2024/01/21 01:43:48;;;;;;;14.27;8.23;;;;;;;;;;5074268;28;20024;-86
2024/01/21 01:46:14;;;;;;;17.23;8.88;;;;;;;;;;5074573;28;20020;-86
2024/01/21 01:48:40;;;;;;;14.80;7.65;;;;;;;;;;5074241;28;20158;-86
2024/01/21 01:51:07;;;;;;;15.48;8.52;;;;;;;;;;5074434;28;20028;-86
2024/01/21 01:53:34;;;;;;;16.20;8.15;;;;;;;;;;5073940;28;20081;-84
2024/01/21 01:56:01;;;;;;;17.15;8.60;;;;;;;;;;5074134;28;20021;-84
2024/01/21 01:58:30;;;;;;;17.48;8.60;;;;;;;;;;5073878;28;20021;-86
2024/01/21 02:00:57;;;;;;;13.25;7.22;;;;;;;;;;5073785;28;20045;-86
2024/01/21 02:03:23;;;;;;;14.75;7.22;;;;;;;;;;5075557;28;20028;-85
2024/01/21 02:05:49;;;;;;;14.00;7.07;;;;;;;;;;5073883;28;20025;-86
2024/01/21 02:08:15;;;;;;;18.13;7.85;;;;;;;;;;5074132;28;20105;-86
2024/01/21 02:10:41;;;;;;;16.17;7.22;;;;;;;;;;5073948;28;20463;-85
2024/01/21 02:13:07;;;;;;;15.25;7.43;;;;;;;;;;5074271;28;20372;-86
2024/01/21 02:15:33;;;;;;;14.70;7.82;;;;;;;;;;5074126;28;20025;-85
2024/01/21 02:17:59;;;;;;;12.88;6.70;;;;;;;;;;5075437;28;20024;-84
2024/01/21 02:20:25;;;;;;;14.50;8.07;;;;;;;;;;5074039;28;20020;-85
2024/01/21 02:22:52;;;;;;;14.45;8.27;;;;;;;;;;5073333;28;20515;-83
2024/01/21 02:25:18;;;;;;;14.30;7.25;;;;;;;;;;5074772;28;20024;-83
2024/01/21 02:27:44;;;;;;;13.60;6.93;;;;;;;;;;5075777;28;20028;-85
2024/01/21 02:30:10;;;;;;;16.30;7.85;;;;;;;;;;5079549;28;20075;-86
2024/01/21 02:32:36;;;;;;;11.43;6.68;;;;;;;;;;5084703;28;20032;-84
2024/01/21 02:35:02;;;;;;;17.25;8.27;;;;;;;;;;5098596;28;20008;-85
2024/01/21 02:37:28;;;;;;;13.77;7.35;;;;;;;;;;5098143;28;20020;-86
2024/01/21 02:39:54;;;;;;;12.93;7.30;;;;;;;;;;5095301;28;20032;-85
2024/01/21 02:42:21;;;;;;;13.10;6.40;;;;;;;;;;5086774;28;20384;-82
2024/01/21 02:44:47;;;;;;;11.27;6.20;;;;;;;;;;5073041;28;20082;-83
2024/01/21 02:47:13;;;;;;;14.32;7.22;;;;;;;;;;5072924;28;20021;-83
2024/01/21 02:49:39;;;;;;;12.38;6.28;;;;;;;;;;5072244;28;20380;-83
2024/01/21 02:52:05;;;;;;;14.07;7.80;;;;;;;;;;5072919;28;20016;-82
2024/01/21 02:54:31;;;;;;;11.15;6.70;;;;;;;;;;5072282;28;20024;-83
2024/01/21 02:56:57;;;;;;;13.02;7.57;;;;;;;;;;5072536;28;20066;-83
2024/01/21 02:59:23;;;;;;;13.18;6.95;;;;;;;;;;5073821;28;20020;-82
2024/01/21 03:01:49;;;;;;;15.90;7.95;;;;;;;;;;5071900;28;20085;-83
2024/01/21 03:04:15;;;;;;;13.77;6.47;;;;;;;;;;5072290;28;20028;-83
2024/01/21 03:06:41;;;;;;;13.30;5.97;;;;;;;;;;5072261;28;20060;-83
2024/01/21 03:09:07;;;;;;;13.68;7.57;;;;;;;;;;5072536;28;20102;-83
2024/01/21 03:11:33;;;;;;;13.40;7.47;;;;;;;;;;5071838;28;20037;-83
2024/01/21 03:13:59;;;;;;;13.00;7.40;;;;;;;;;;5072447;28;20024;-82
2024/01/21 03:16:25;;;;;;;14.13;7.55;;;;;;;;;;5072210;28;20468;-81
2024/01/21 03:18:51;;;;;;;12.85;7.10;;;;;;;;;;5071980;28;20086;-84
2024/01/21 03:21:17;;;;;;;15.45;9.07;;;;;;;;;;5072453;28;20059;-84
2024/01/21 03:23:43;;;;;;;14.95;8.07;;;;;;;;;;5071875;28;20458;-85
2024/01/21 03:26:09;;;;;;;22.17;11.77;;;;;;;;;;5072359;28;20024;-85
2024/01/21 03:28:35;;;;;;;20.15;11.65;;;;;;;;;;5071805;28;20086;-84
2024/01/21 03:31:01;;;;;;;21.88;11.80;;;;;;;;;;5072071;28;20032;-83
2024/01/21 03:33:27;;;;;;;17.17;8.35;;;;;;;;;;5072555;28;20029;-85
2024/01/21 03:35:53;;;;;;;17.15;8.77;;;;;;;;;;5071541;28;20027;-84
2024/01/21 03:38:19;;;;;;;14.10;8.32;;;;;;;;;;5071871;28;20031;-85
2024/01/21 03:40:45;;;;;;;13.52;6.28;;;;;;;;;;5071676;28;20468;-84
2024/01/21 03:43:12;;;;;;;11.45;5.32;;;;;;;;;;5072810;28;20101;-83
2024/01/21 03:45:38;;;;;;;12.02;5.70;;;;;;;;;;5071597;28;20033;-83
2024/01/21 03:48:05;;;;;;;14.23;6.28;;;;;;;;;;5071752;28;20027;-85
2024/01/21 03:50:31;;;;;;;12.55;6.25;;;;;;;;;;5071513;28;20097;-85
2024/01/21 03:52:57;;;;;;;11.65;5.85;;;;;;;;;;5071394;28;20020;-85
2024/01/21 03:55:24;;;;;;;12.55;6.28;;;;;;;;;;5072966;28;20388;-85
2024/01/21 03:57:50;;;;;;;11.25;6.00;;;;;;;;;;5072649;28;20017;-85
2024/01/21 04:00:16;;;;;;;11.85;5.25;;;;;;;;;;5070821;28;20020;-83
2024/01/21 04:02:42;;;;;;;9.57;4.97;;;;;;;;;;5071142;28;20036;-85
2024/01/21 04:05:08;;;;;;;9.60;5.03;;;;;;;;;;5071833;28;20036;-85
2024/01/21 04:07:37;;;;;;;11.23;4.78;;;;;;;;;;5071558;28;20025;-86
2024/01/21 04:10:04;;;;;;;13.57;5.35;;;;;;;;;;5071685;28;20097;-86
2024/01/21 04:12:30;;;;;;;8.02;4.45;;;;;;;;;;5071491;28;20480;-86
2024/01/21 04:14:56;;;;;;;14.27;6.28;;;;;;;;;;5071394;28;20035;-87
2024/01/21 04:17:23;;;;;;;11.95;6.15;;;;;;;;;;5071324;28;20070;-86
2024/01/21 04:19:49;;;;;;;11.18;5.78;;;;;;;;;;5071408;28;20021;-86
2024/01/21 04:22:18;;;;;;;12.07;6.05;;;;;;;;;;5071356;28;20023;-83
2024/01/21 04:24:44;;;;;;;10.52;5.07;;;;;;;;;;5071053;28;20117;-86
2024/01/21 04:27:10;;;;;;;12.38;5.65;;;;;;;;;;5071240;28;20117;-83
2024/01/21 04:29:36;;;;;;;12.38;5.82;;;;;;;;;;5072209;28;20028;-84
2024/01/21 04:32:03;;;;;;;10.85;5.03;;;;;;;;;;5072695;28;20020;-85
2024/01/21 04:34:29;;;;;;;11.88;5.38;;;;;;;;;;5071507;28;20052;-83
2024/01/21 04:36:55;;;;;;;10.82;4.85;;;;;;;;;;5071360;28;20063;-83
2024/01/21 04:39:22;;;;;;;12.43;4.60;;;;;;;;;;5071553;28;20052;-83
2024/01/21 04:41:48;;;;;;;9.82;4.72;;;;;;;;;;5072624;28;20013;-83
2024/01/21 04:44:14;;;;;;;9.75;5.22;;;;;;;;;;5071376;28;20024;-83
2024/01/21 04:46:40;;;;;;;9.13;4.50;;;;;;;;;;5071844;28;20487;-83
2024/01/21 04:49:06;;;;;;;11.60;4.88;;;;;;;;;;5074113;28;20028;-83
2024/01/21 04:51:32;;;;;;;9.68;5.18;;;;;;;;;;5076412;28;20029;-83
2024/01/21 04:53:58;;;;;;;12.77;4.95;;;;;;;;;;5092909;28;20021;-80
2024/01/21 04:56:24;;;;;;;7.85;3.78;;;;;;;;;;5095094;28;20017;-81
2024/01/21 04:58:50;;;;;;;7.85;4.22;;;;;;;;;;5094913;28;20096;-82
2024/01/21 05:01:16;;;;;;;11.80;4.90;;;;;;;;;;5076852;28;20055;-82
2024/01/21 05:03:42;;;;;;;7.95;4.07;;;;;;;;;;5072316;28;20028;-82
2024/01/21 05:06:08;;;;;;;8.00;3.58;;;;;;;;;;5072213;28;20557;-81
2024/01/21 05:08:34;;;;;;;10.63;3.95;;;;;;;;;;5070748;28;20021;-82
2024/01/21 05:11:00;;;;;;;8.55;4.22;;;;;;;;;;5070666;28;20031;-85
2024/01/21 05:13:27;;;;;;;11.75;5.47;;;;;;;;;;5073977;28;20028;-86
2024/01/21 05:15:53;;;;;;;8.63;4.13;;;;;;;;;;5075786;28;20530;-85
2024/01/21 05:18:20;;;;;;;7.82;3.38;;;;;;;;;;5074655;28;20026;-84
2024/01/21 05:20:46;;;;;;;6.35;3.20;;;;;;;;;;5074233;28;20123;-84
2024/01/21 05:23:12;;;;;;;7.85;3.95;;;;;;;;;;5075896;28;20472;-84
2024/01/21 05:25:38;;;;;;;8.93;3.85;;;;;;;;;;5074513;28;20032;-81
2024/01/21 05:28:04;;;;;;;10.32;4.35;;;;;;;;;;5074411;28;20063;-81
2024/01/21 05:30:30;;;;;;;8.18;3.75;;;;;;;;;;5074412;28;20024;-83
2024/01/21 05:32:56;;;;;;;7.55;3.83;;;;;;;;;;5073734;28;20024;-82
2024/01/21 05:35:22;;;;;;;7.65;4.18;;;;;;;;;;5073947;28;20021;-82
2024/01/21 05:37:49;;;;;;;8.52;4.47;;;;;;;;;;5073913;28;20025;-82
2024/01/21 05:40:15;;;;;;;6.95;3.75;;;;;;;;;;5074244;28;20027;-82
2024/01/21 05:42:41;;;;;;;8.27;3.15;;;;;;;;;;5073858;28;20124;-82
2024/01/21 05:45:08;;;;;;;9.50;5.18;;;;;;;;;;5074133;28;20024;-82
2024/01/21 05:47:34;;;;;;;9.98;4.22;;;;;;;;;;5074087;28;20072;-82
2024/01/21 05:50:00;;;;;;;10.00;4.00;;;;;;;;;;5073812;28;20056;-84
2024/01/21 05:52:26;;;;;;;8.85;4.30;;;;;;;;;;5073924;28;20029;-83
2024/01/21 05:54:52;;;;;;;7.25;3.70;;;;;;;;;;5073683;28;20457;-83
2024/01/21 05:57:18;;;;;;;8.40;4.03;;;;;;;;;;5075472;28;20020;-84
2024/01/21 05:59:44;;;;;;;9.05;4.18;;;;;;;;;;5073618;28;20021;-84
2024/01/21 06:02:10;;;;;;;9.20;4.18;;;;;;;;;;5073628;28;20052;-84
2024/01/21 06:04:36;;;;;;;9.13;4.20;;;;;;;;;;5075254;28;20066;-84
2024/01/21 06:07:02;;;;;;;9.02;3.95;;;;;;;;;;5073535;28;20067;-84
2024/01/21 06:09:28;;;;;;;10.25;3.97;;;;;;;;;;5073774;28;20020;-85
2024/01/21 06:11:54;;;;;;;7.97;3.83;;;;;;;;;;5075135;28;20028;-84
2024/01/21 06:14:20;;;;;;;8.15;4.18;;;;;;;;;;5073699;28;20384;-84
2024/01/21 06:16:46;;;;;;;8.68;3.50;;;;;;;;;;5072911;28;20020;-84
2024/01/21 06:19:13;;;;;;;8.27;3.95;;;;;;;;;;5074619;28;20016;-83
2024/01/21 06:21:45;;;;;;;8.85;4.30;;;;;;;;;;5073386;28;20107;-84
2024/01/21 06:24:14;;;;;;;9.23;4.45;;;;;;;;;;5072488;28;20085;-83
2024/01/21 06:26:40;;;;;;;8.75;4.22;;;;;;;;;;5073299;28;20029;-82
2024/01/21 06:29:07;;;;;;;9.93;4.28;;;;;;;;;;5073031;28;20024;-83
2024/01/21 06:31:33;;;;;;;12.55;4.05;;;;;;;;;;5073098;28;20024;-82
2024/01/21 06:33:59;;;;;;;7.13;3.78;;;;;;;;;;5072867;28;20028;-82
2024/01/21 06:36:25;;;;;;;9.13;5.28;;;;;;;;;;5073053;28;20371;-82
2024/01/21 06:38:51;;;;;;;11.73;5.70;;;;;;;;;;5074187;28;20021;-82
2024/01/21 06:41:17;;;;;;;9.57;4.97;;;;;;;;;;5074364;28;20025;-82
2024/01/21 06:43:43;;;;;;;10.98;5.18;;;;;;;;;;5074310;28;20349;-87
2024/01/21 06:46:10;;;;;;;11.32;5.20;;;;;;;;;;5073291;28;20075;-85
2024/01/21 06:48:36;;;;;;;10.35;5.97;;;;;;;;;;5073133;28;20028;-85
2024/01/21 06:51:10;;;;;;;11.05;5.20;;;;;;;;;;5073119;28;20024;-86
2024/01/21 06:53:36;;;;;;;10.63;5.38;;;;;;;;;;5073531;28;20361;-85
2024/01/21 06:56:07;;;;;;;12.23;6.07;;;;;;;;;;5072978;28;20021;-85
2024/01/21 06:58:33;;;;;;;12.50;6.43;;;;;;;;;;5072929;28;20025;-81
2024/01/21 07:00:59;;;;;;;11.95;5.13;;;;;;;;;;5073665;28;20045;-84
2024/01/21 07:03:25;;;;;;;16.27;7.03;;;;;;;;;;5073415;28;20021;-83
2024/01/21 07:05:51;;;;;;;11.25;5.82;;;;;;;;;;5074361;28;20029;-83
2024/01/21 07:08:17;;;;;;;10.23;4.45;;;;;;;;;;5076321;28;20071;-83
2024/01/21 07:10:43;;;;;;;11.90;6.25;;;;;;;;;;5076747;28;20056;-84
2024/01/21 07:13:10;;;;;;;11.88;5.57;;;;;;;;;;5091656;28;20020;-85
2024/01/21 07:15:36;;;;;;;11.50;5.65;;;;;;;;;;5097361;28;20025;-83
2024/01/21 07:18:02;;;;;;;10.40;5.30;;;;;;;;;;5096164;28;20029;-82
2024/01/21 07:20:28;;;;;;;10.35;6.03;;;;;;;;;;5084680;28;20031;-84
2024/01/21 07:22:55;;;;;;;12.20;5.85;;;;;;;;;;5074758;28;20024;-85
2024/01/21 07:25:22;;;;;;;15.95;6.70;;;;;;;;;;5072349;28;20039;-84
2024/01/21 07:27:48;;;;;;;14.57;6.50;;;;;;;;;;5072018;28;20028;-84
2024/01/21 07:30:15;;;;;;;10.57;5.50;;;;;;;;;;5072176;28;20032;-84
2024/01/21 07:32:42;;;;;;;12.88;6.35;;;;;;;;;;5071918;28;20082;-84
2024/01/21 07:35:11;;;;;;;16.17;7.40;;;;;;;;;;5071867;28;20123;-83
2024/01/21 07:37:37;;;;;;;13.10;7.03;;;;;;;;;;5071868;28;20024;-83
2024/01/21 07:40:04;;;;;;;11.80;7.00;;;;;;;;;;5073111;28;20020;-83
2024/01/21 07:42:31;;;;;;;9.60;5.32;;;;;;;;;;5071849;28;20131;-80
2024/01/21 07:44:57;;;;;;;10.43;5.53;;;;;;;;;;5071587;28;20029;-82
2024/01/21 07:47:23;;;;;;;9.73;5.85;;;;;;;;;;5071662;28;20032;-81
2024/01/21 07:49:49;;;;;;;12.43;5.57;;;;;;;;;;5071374;28;20024;-81
2024/01/21 07:52:16;;;;;;;14.63;6.72;;;;;;;;;;5071498;28;20020;-79
2024/01/21 07:54:43;;;;;;;11.18;5.78;;;;;;;;;;5071314;28;20101;-80
2024/01/21 07:57:09;;;;;;;11.18;5.43;;;;;;;;;;5071243;28;20025;-79
2024/01/21 07:59:35;;;;;;;12.63;5.25;;;;;;;;;;5071397;28;20017;-80
2024/01/21 08:02:01;;;;;;;10.05;4.85;;;;;;;;;;5071022;28;20074;-79
2024/01/21 08:04:27;;;;;;;10.30;5.65;;;;;;;;;;5071323;28;20025;-80
2024/01/21 08:06:54;;;;;;;11.25;5.15;;;;;;;;;;5070891;28;20408;-81
2024/01/21 08:09:21;;;;;;;10.85;5.15;;;;;;;;;;5071072;28;20066;-80
2024/01/21 08:11:47;;;;;;;12.10;5.45;;;;;;;;;;5072554;28;20322;-79
2024/01/21 08:14:13;;;;;;;11.40;4.85;;;;;;;;;;5070852;28;20024;-81
2024/01/21 08:16:39;;;;;;;9.70;4.72;;;;;;;;;;5070871;28;20082;-80
2024/01/21 08:19:05;;;;;;;11.05;5.55;;;;;;;;;;5072316;28;20020;-79
2024/01/21 08:21:31;;;;;;;11.73;5.63;;;;;;;;;;5072421;28;20035;-79
2024/01/21 08:23:57;;;;;;;11.98;7.10;;;;;;;;;;5070865;28;20472;-78
2024/01/21 08:26:23;;;;;;;11.20;5.63;;;;;;;;;;5072206;28;20031;-81
2024/01/21 08:28:49;;;;;;;11.65;5.82;;;;;;;;;;5070799;28;20021;-81
2024/01/21 08:31:16;;;;;;;9.75;5.00;;;;;;;;;;5071083;28;20048;-80
2024/01/21 08:33:42;;;;;;;9.60;4.68;;;;;;;;;;5071136;28;20498;-80
2024/01/21 08:36:08;;;;;;;13.07;5.70;;;;;;;;;;5070861;28;20085;-81
2024/01/21 08:38:34;;;;;;;12.00;6.13;;;;;;;;;;5070841;28;20028;-78
2024/01/21 08:41:00;;;;;;;9.35;5.03;;;;;;;;;;5071907;28;20029;-79
2024/01/21 08:43:26;;;;;;;9.23;5.57;;;;;;;;;;5070958;28;20392;-81
2024/01/21 08:45:52;;;;;;;10.70;5.05;;;;;;;;;;5070510;28;20028;-79
2024/01/21 08:48:18;;;;;;;10.68;6.13;;;;;;;;;;5073990;28;20024;-80
2024/01/21 08:50:45;;;;;;;12.73;5.68;;;;;;;;;;5075066;28;20017;-80
2024/01/21 08:53:11;;;;;;;14.02;5.68;;;;;;;;;;5074744;28;20064;-80
2024/01/21 08:55:37;;;;;;;11.95;5.53;;;;;;;;;;5074955;28;20097;-79
2024/01/21 08:58:03;;;;;;;12.35;5.43;;;;;;;;;;5076059;28;20278;-79
2024/01/21 09:00:29;;;;;;;10.73;5.60;;;;;;;;;;5074496;28;20021;-80
2024/01/21 09:02:55;;;;;;;11.93;5.85;;;;;;;;;;5075502;28;20025;-80
2024/01/21 09:05:21;;;;;;;11.40;6.10;;;;;;;;;;5074830;28;20028;-80
2024/01/21 09:07:49;;;;;;;12.18;5.93;;;;;;;;;;5074887;28;20400;-79
2024/01/21 09:10:17;;;;;;;10.23;5.30;;;;;;;;;;5074662;28;20486;-81
2024/01/21 09:12:43;;;;;;;10.63;4.85;;;;;;;;;;5076006;28;20159;-80
2024/01/21 09:15:09;;;;;;;10.10;5.97;;;;;;;;;;5074349;28;20193;-81
2024/01/21 09:17:35;;;;;;;9.98;5.32;;;;;;;;;;5074368;28;20027;-80
2024/01/21 09:20:01;;;;;;;10.57;5.78;;;;;;;;;;5075745;28;20021;-81
2024/01/21 09:22:30;;;;;;;9.50;4.90;;;;;;;;;;5074958;28;20020;-81
2024/01/21 09:24:56;;;;;;;9.80;4.93;;;;;;;;;;5075194;28;20127;-82
2024/01/21 09:27:22;;;;;;;7.80;4.45;;;;;;;;;;5077606;28;20051;-82
2024/01/21 09:29:47;;;;;;;14.52;5.88;;;;;;;;;;5080251;28;20055;-80
2024/01/21 09:32:17;;;;;;;9.38;4.75;;;;;;;;;;5096763;28;20028;-81
2024/01/21 09:34:44;;;;;;;9.75;5.32;;;;;;;;;;5095906;28;20234;-79
2024/01/21 09:37:10;;;;;;;9.98;5.63;;;;;;;;;;5092078;28;20029;-81
2024/01/21 09:39:37;;;;;;;9.05;4.95;;;;;;;;;;5074270;28;20070;-82
2024/01/21 09:42:09;;;;;;;10.38;5.70;;;;;;;;;;5073190;28;20472;-82
2024/01/21 09:44:36;;;;;;;11.25;5.03;;;;;;;;;;5074883;28;20060;-81
2024/01/21 09:47:02;;;;;;;10.05;4.78;;;;;;;;;;5073531;28;20024;-82
2024/01/21 09:49:31;;;;;;;12.23;5.88;;;;;;;;;;5073651;28;20376;-80
2024/01/21 09:51:57;;;;;;;12.30;6.03;;;;;;;;;;5073497;28;20121;-82
2024/01/21 09:54:23;;;;;;;10.45;5.70;;;;;;;;;;5073787;28;20044;-82
2024/01/21 09:56:49;;;;;;;10.48;5.80;;;;;;;;;;5073408;28;20035;-82
2024/01/21 09:59:18;;;;;;;10.45;5.65;;;;;;;;;;5073710;28;20113;-82
2024/01/21 10:01:44;;;;;;;10.40;5.50;;;;;;;;;;5073331;28;20041;-82
2024/01/21 10:04:11;;;;;;;12.32;5.68;;;;;;;;;;5073014;28;20043;-81
2024/01/21 10:06:37;;;;;;;11.02;5.32;;;;;;;;;;5073285;28;20070;-81
2024/01/21 10:09:12;;;;;;;9.73;4.82;;;;;;;;;;5074409;28;20024;-79
2024/01/21 10:11:39;;;;;;;10.82;5.72;;;;;;;;;;5073231;28;20031;-80
2024/01/21 10:14:08;;;;;;;10.73;5.85;;;;;;;;;;5073025;28;20024;-80
2024/01/21 10:16:34;;;;;;;10.85;4.55;;;;;;;;;;5072850;28;20025;-81
2024/01/21 10:19:00;;;;;;;14.30;5.70;;;;;;;;;;5072660;28;20025;-81
2024/01/21 10:21:26;;;;;;;10.63;5.75;;;;;;;;;;5074132;28;20481;-80
2024/01/21 10:23:52;;;;;;;10.98;6.90;;;;;;;;;;5072421;28;20067;-81
2024/01/21 10:26:20;;;;;;;11.02;5.68;;;;;;;;;;5072802;28;20073;-81
2024/01/21 10:28:47;;;;;;;11.80;5.35;;;;;;;;;;5072790;28;20056;-80
2024/01/21 10:31:13;;;;;;;11.63;5.63;;;;;;;;;;5072540;28;20455;-79
2024/01/21 10:33:43;;;;;;;10.30;5.78;;;;;;;;;;5073683;28;20361;-80
2024/01/21 10:36:12;;;;;;;10.73;6.05;;;;;;;;;;5072535;28;20062;-80
2024/01/21 10:38:48;;;;;;;10.30;5.82;;;;;;;;;;5073774;28;20028;-81
2024/01/21 10:41:15;;;;;;;11.48;4.97;;;;;;;;;;5072827;28;20025;-80
2024/01/21 10:43:41;;;;;;;11.50;6.47;;;;;;;;;;5072691;28;20063;-80
2024/01/21 10:46:08;;;;;;;11.77;6.55;;;;;;;;;;5074116;28;20025;-80
2024/01/21 10:48:35;;;;;;;12.02;6.28;;;;;;;;;;5072528;28;20166;-81
2024/01/21 10:51:01;;;;;;;10.98;6.63;;;;;;;;;;5072173;28;20032;-79
2024/01/21 10:53:28;;;;;;;8.98;5.00;;;;;;;;;;5072459;28;20029;-80
2024/01/21 10:55:55;;;;;;;12.13;6.03;;;;;;;;;;5072432;28;20382;-81
2024/01/21 10:58:22;;;;;;;9.60;4.72;;;;;;;;;;5072462;28;20110;-80
2024/01/21 11:00:50;;;;;;;12.43;6.80;;;;;;;;;;5071989;28;20476;-80
2024/01/21 11:03:31;;;;;;;11.27;5.82;;;;;;;;;;5073610;28;20033;-81
2024/01/21 11:06:01;;;;;;;10.30;6.18;;;;;;;;;;5071864;28;20036;-80
2024/01/21 11:08:28;;;;;;;11.25;6.93;;;;;;;;;;5072152;28;20027;-80
2024/01/21 11:11:02;;;;;;;12.65;6.47;;;;;;;;;;5072447;28;20024;-80
2024/01/21 11:13:46;;;;;;;11.50;6.63;;;;;;;;;;5073073;28;20355;-80
2024/01/21 11:16:35;;;;;;;11.77;5.70;;;;;;;;;;5071641;28;20024;-80
2024/01/21 11:19:10;;;;;;;13.05;6.70;;;;;;;;;;5072015;28;20070;-81
2024/01/21 11:21:41;;;;;;;14.32;7.40;;;;;;;;;;5072287;28;20029;-79
2024/01/21 11:24:08;;;;;;;13.10;5.65;;;;;;;;;;5072140;28;20422;-80
2024/01/21 11:26:38;;;;;;;11.35;6.50;;;;;;;;;;5071922;28;20028;-80
2024/01/21 11:29:21;;;;;;;11.90;6.50;;;;;;;;;;5073628;28;20027;-79
2024/01/21 11:31:51;;;;;;;10.73;6.15;;;;;;;;;;5072051;28;20017;-79
2024/01/21 11:34:17;;;;;;;11.90;6.53;;;;;;;;;;5071877;28;20028;-80
2024/01/21 11:36:46;;;;;;;11.55;6.32;;;;;;;;;;5072090;28;20464;-79
2024/01/21 11:39:12;;;;;;;9.15;5.00;;;;;;;;;;5074093;28;20341;-79
2024/01/21 11:41:42;;;;;;;12.20;6.88;;;;;;;;;;5071699;28;20024;-79
2024/01/21 11:44:28;;;;;;;11.85;6.20;;;;;;;;;;5073130;28;20032;-79
2024/01/21 11:46:55;;;;;;;10.98;5.03;;;;;;;;;;5072071;28;20032;-78
2024/01/21 11:49:21;;;;;;;9.68;5.75;;;;;;;;;;5075241;28;20021;-77
2024/01/21 11:51:48;;;;;;;12.23;7.20;;;;;;;;;;5074603;28;20557;-78
2024/01/21 11:54:14;;;;;;;10.13;5.97;;;;;;;;;;5073668;28;20035;-79
2024/01/21 11:56:40;;;;;;;13.55;7.65;;;;;;;;;;5071149;28;20115;-79
2024/01/21 11:59:07;;;;;;;10.93;6.60;;;;;;;;;;5070993;28;20024;-80
2024/01/21 12:01:33;;;;;;;14.05;6.10;;;;;;;;;;5072832;28;20093;-79
2024/01/21 12:04:03;;;;;;;12.25;5.72;;;;;;;;;;5070896;28;20036;-80
2024/01/21 12:06:31;;;;;;;11.45;6.60;;;;;;;;;;5072378;28;20151;-79
2024/01/21 12:08:59;;;;;;;10.80;7.13;;;;;;;;;;5072469;28;20024;-80
2024/01/21 12:11:25;;;;;;;14.57;8.13;;;;;;;;;;5071350;28;20112;-79
2024/01/21 12:13:51;;;;;;;13.75;6.75;;;;;;;;;;5072671;28;20468;-78
2024/01/21 12:16:18;;;;;;;13.23;6.55;;;;;;;;;;5070717;28;20025;-80
2024/01/21 12:18:45;;;;;;;13.90;5.93;;;;;;;;;;5071111;28;20028;-79
2024/01/21 12:21:14;;;;;;;11.18;6.20;;;;;;;;;;5070697;28;20292;-79
2024/01/21 12:23:44;;;;;;;14.15;7.43;;;;;;;;;;5070639;28;20040;-80
2024/01/21 12:26:15;;;;;;;12.05;6.82;;;;;;;;;;5071245;28;20023;-80
2024/01/21 12:28:53;;;;;;;14.48;6.53;;;;;;;;;;5072673;28;20017;-79
2024/01/21 12:31:20;;;;;;;13.00;6.50;;;;;;;;;;5072384;28;20024;-80
2024/01/21 12:33:46;;;;;;;11.07;6.00;;;;;;;;;;5071298;28;20123;-79
2024/01/21 12:36:12;;;;;;;11.15;5.80;;;;;;;;;;5070901;28;20021;-80
2024/01/21 12:38:38;;;;;;;12.27;6.32;;;;;;;;;;5072675;28;20029;-80
2024/01/21 12:41:05;;;;;;;11.93;6.18;;;;;;;;;;5072413;28;20021;-80
2024/01/21 12:43:31;;;;;;;14.75;6.95;;;;;;;;;;5070812;28;20044;-80
2024/01/21 12:45:57;;;;;;;14.05;6.35;;;;;;;;;;5072344;28;20032;-79
2024/01/21 12:48:23;;;;;;;10.88;6.45;;;;;;;;;;5070615;28;20025;-79
2024/01/21 12:50:49;;;;;;;15.75;8.23;;;;;;;;;;5071923;28;20027;-79
2024/01/21 12:53:15;;;;;;;14.30;8.38;;;;;;;;;;5070312;28;20048;-79
2024/01/21 12:55:41;;;;;;;9.75;5.53;;;;;;;;;;5070740;28;20060;-79
2024/01/21 12:58:10;;;;;;;13.73;7.68;;;;;;;;;;5071673;28;20093;-79
2024/01/21 13:00:36;;;;;;;11.43;5.45;;;;;;;;;;5071643;28;20129;-80
2024/01/21 13:03:02;;;;;;;10.90;6.47;;;;;;;;;;5070407;28;20138;-78
2024/01/21 13:05:28;;;;;;;15.88;6.85;;;;;;;;;;5072011;28;20016;-79
2024/01/21 13:07:58;;;;;;;12.07;6.90;;;;;;;;;;5070649;28;20024;-79
2024/01/21 13:10:24;;;;;;;;;;;;;;;;;;5073370;28;20017;-78
2024/01/21 13:12:50;;;;;;;12.40;6.78;;;;;;;;;;5071320;28;19904;-79
2024/01/21 13:15:16;;;;;;;13.15;6.65;;;;;;;;;;5071301;28;20420;-80
2024/01/21 13:17:42;;;;;;;11.23;6.60;;;;;;;;;;5073688;28;20021;-79
2024/01/21 13:20:09;;;;;;;12.02;6.47;;;;;;;;;;5072439;28;20055;-79
2024/01/21 13:22:35;;;;;;;12.30;6.60;;;;;;;;;;5070970;28;20020;-79
2024/01/21 13:25:02;;;;;;;9.65;5.10;;;;;;;;;;5071587;28;20047;-78
2024/01/21 13:27:39;;;;;;;10.48;6.43;;;;;;;;;;5053031;28;20032;-80
2024/01/21 13:32:51;;;;;;;15.15;6.88;;;;;;;;;;5053994;28;20032;-80
2024/01/21 13:35:17;;;;;;;11.55;6.70;;;;;;;;;;5058334;28;20481;-80
2024/01/21 13:37:43;;;;;;;14.32;7.32;;;;;;;;;;5057025;28;20432;-79
2024/01/21 13:40:10;;;;;;;11.02;6.05;;;;;;;;;;5056298;28;20445;-80
2024/01/21 13:42:36;;;;;;;13.38;7.25;;;;;;;;;;5053961;28;20017;-79
2024/01/21 13:45:02;;;;;;;13.20;5.68;;;;;;;;;;5055565;28;20158;-80
2024/01/21 13:47:29;;;;;;;12.80;6.78;;;;;;;;;;5055544;28;20056;-80
2024/01/21 13:49:55;;;;;;;10.88;6.68;;;;;;;;;;5055054;28;20040;-80
2024/01/21 13:52:21;;;;;;;10.18;5.68;;;;;;;;;;5053953;28;20562;-79
2024/01/21 13:54:47;;;;;;;12.02;7.43;;;;;;;;;;5054027;28;20059;-80
2024/01/21 13:57:13;;;;;;;12.68;7.00;;;;;;;;;;5053513;28;20017;-79
2024/01/21 13:59:39;;;;;;;19.42;8.60;;;;;;;;;;5054954;28;20162;-79
2024/01/21 14:02:07;;;;;;;11.68;6.88;;;;;;;;;;5053569;28;20102;-80
2024/01/21 14:04:34;;;;;;;13.65;5.75;;;;;;;;;;5054520;28;20051;-80
2024/01/21 14:07:00;;;;;;;11.75;6.70;;;;;;;;;;5058721;28;20017;-79
2024/01/21 14:09:26;;;;;;;15.27;7.75;;;;;;;;;;5057388;28;20036;-78
2024/01/21 14:11:53;;;;;;;15.48;7.47;;;;;;;;;;5057679;28;20158;-80
2024/01/21 14:14:19;;;;;;;13.10;7.38;;;;;;;;;;5053293;28;20025;-79
2024/01/21 14:16:45;;;;;;;14.20;6.70;;;;;;;;;;5053236;28;20024;-81
2024/01/21 14:19:11;;;;;;;15.18;7.10;;;;;;;;;;5053047;28;20021;-79
2024/01/21 14:21:37;;;;;;;12.82;6.95;;;;;;;;;;5053244;28;20120;-80
2024/01/21 14:24:05;;;;;;;13.35;7.10;;;;;;;;;;5054265;28;20389;-79
2024/01/21 14:26:35;;;;;;;13.25;6.63;;;;;;;;;;5052665;28;20090;-80
2024/01/21 14:29:03;;;;;;;13.90;7.03;;;;;;;;;;5053128;28;20063;-79
2024/01/21 14:31:29;;;;;;;16.95;7.25;;;;;;;;;;5052787;28;20033;-80
2024/01/21 14:33:55;;;;;;;14.82;8.23;;;;;;;;;;5052842;28;20120;-80